Time;durP1;ratioP1;P1;durP2;ratioP2;P2;SDS_P1;SDS_P2;PMS_P1;PMS_P2;Temp;Humidity;BMP_temperature;BMP_pressure;BME280_temperature;BME280_humidity;BME280_pressure;Samples;Min_cycle;Max_cycle;Signal;HPM_P1;HPM_P2
2023/03/21 00:01:14;;;;;;;59.15;32.03;;;6.80;99.90;;;;;;5039256;28;20044;-72
2023/03/21 00:03:42;;;;;;;64.05;32.45;;;6.80;99.90;;;;;;5042069;28;20156;-73
2023/03/21 00:06:10;;;;;;;59.20;32.60;;;6.90;99.90;;;;;;5046477;28;20040;-73
2023/03/21 00:08:36;;;;;;;62.30;33.28;;;6.90;99.90;;;;;;5046914;28;20037;-73
2023/03/21 00:11:04;;;;;;;58.95;33.55;;;6.90;99.90;;;;;;5048802;28;20044;-72
2023/03/21 00:13:32;;;;;;;67.80;34.60;;;6.90;99.90;;;;;;5048399;28;20078;-72
2023/03/21 00:16:07;;;;;;;65.10;34.50;;;6.90;99.90;;;;;;5045281;28;20051;-73
2023/03/21 00:18:35;;;;;;;62.45;33.50;;;6.90;99.90;;;;;;5045279;28;20543;-73
2023/03/21 00:21:03;;;;;;;66.93;34.92;;;6.90;99.90;;;;;;5047429;28;20021;-72
2023/03/21 00:23:30;;;;;;;66.75;34.60;;;6.90;99.90;;;;;;5045294;28;20056;-72
2023/03/21 00:25:56;;;;;;;66.97;33.55;;;6.90;99.90;;;;;;5047035;28;20056;-72
2023/03/21 00:28:23;;;;;;;66.00;35.05;;;6.90;99.90;;;;;;5048757;28;20037;-72
2023/03/21 00:30:49;;;;;;;67.68;35.65;;;6.90;99.90;;;;;;5044595;28;20033;-70
2023/03/21 00:33:14;;;;;;;66.35;35.85;;;6.90;99.90;;;;;;5043590;28;20638;-72
2023/03/21 00:35:46;;;;;;;62.90;34.30;;;6.90;99.90;;;;;;5046633;28;20376;-70
2023/03/21 00:38:13;;;;;;;66.85;35.03;;;6.90;99.90;;;;;;5038357;28;20039;-70
2023/03/21 00:40:39;;;;;;;64.72;34.13;;;6.90;99.90;;;;;;5048104;28;20029;-70
2023/03/21 00:43:04;;;;;;;70.00;35.88;;;6.90;99.90;;;;;;5046854;28;20508;-71
2023/03/21 00:45:30;;;;;;;65.15;34.85;;;6.90;99.90;;;;;;5045743;28;20067;-71
2023/03/21 00:47:56;;;;;;;68.43;36.03;;;6.90;99.90;;;;;;5047479;28;20033;-70
2023/03/21 00:50:22;;;;;;;65.13;35.38;;;6.90;99.90;;;;;;5046179;28;20037;-71
2023/03/21 00:52:48;;;;;;;72.80;37.85;;;6.90;99.90;;;;;;5041034;28;20461;-71
2023/03/21 00:55:15;;;;;;;77.03;36.38;;;6.90;99.90;;;;;;5047370;28;20516;-71
2023/03/21 00:57:41;;;;;;;72.38;36.35;;;6.90;99.90;;;;;;5041371;28;20057;-71
2023/03/21 01:00:09;;;;;;;67.30;36.35;;;6.90;99.90;;;;;;5043206;28;20029;-70
2023/03/21 01:02:36;;;;;;;71.05;35.45;;;6.90;99.90;;;;;;5045937;28;20036;-71
2023/03/21 01:05:03;;;;;;;72.63;35.45;;;6.90;99.90;;;;;;5043532;28;20033;-71
2023/03/21 01:07:28;;;;;;;72.57;35.97;;;6.90;99.90;;;;;;5044412;28;20039;-71
2023/03/21 01:09:54;;;;;;;71.57;36.17;;;7.00;99.90;;;;;;5047728;28;20120;-71
2023/03/21 01:12:19;;;;;;;74.80;37.13;;;7.00;99.90;;;;;;5047970;28;20044;-71
2023/03/21 01:14:45;;;;;;;70.63;37.03;;;7.00;99.90;;;;;;5047686;28;20035;-71
2023/03/21 01:17:10;;;;;;;73.43;36.38;;;7.00;99.90;;;;;;5045694;28;20048;-72
2023/03/21 01:19:36;;;;;;;72.07;36.60;;;7.00;99.90;;;;;;5044937;28;20112;-71
2023/03/21 01:22:01;;;;;;;75.72;37.80;;;7.00;99.90;;;;;;5043742;28;20041;-73
2023/03/21 01:24:27;;;;;;;72.90;38.08;;;7.00;99.90;;;;;;5050205;28;20083;-74
2023/03/21 01:26:52;;;;;;;71.10;35.75;;;7.00;99.90;;;;;;5044148;28;20032;-73
2023/03/21 01:29:18;;;;;;;76.85;38.65;;;7.00;99.90;;;;;;5050081;28;20033;-73
2023/03/21 01:31:43;;;;;;;75.75;37.90;;;7.00;99.90;;;;;;5045178;28;20480;-73
2023/03/21 01:34:09;;;;;;;79.22;38.55;;;7.00;99.90;;;;;;5046900;28;20028;-74
2023/03/21 01:36:35;;;;;;;74.38;37.38;;;7.00;99.90;;;;;;5045198;28;20043;-74
2023/03/21 01:39:01;;;;;;;80.50;37.28;;;7.00;99.90;;;;;;5047670;28;20098;-74
2023/03/21 01:41:29;;;;;;;85.07;38.33;;;7.10;99.90;;;;;;5052088;28;20053;-74
2023/03/21 01:43:54;;;;;;;74.35;37.13;;;7.00;99.90;;;;;;5032627;28;20036;-74
2023/03/21 01:46:41;;;;;;;76.22;37.45;;;7.00;99.90;;;;;;5050077;28;20033;-73
2023/03/21 01:49:24;;;;;;;79.38;36.75;;;7.00;99.90;;;;;;5050692;28;20044;-74
2023/03/21 01:51:58;;;;;;;74.75;37.75;;;7.00;99.90;;;;;;5050810;28;20314;-73
2023/03/21 01:54:28;;;;;;;84.82;39.38;;;7.00;99.90;;;;;;5051736;28;20025;-74
2023/03/21 01:56:55;;;;;;;82.70;38.58;;;7.00;99.90;;;;;;5052125;28;20021;-74
2023/03/21 01:59:33;;;;;;;83.70;36.85;;;7.10;99.90;;;;;;5052461;28;20263;-73
2023/03/21 02:02:06;;;;;;;78.43;39.58;;;7.10;99.90;;;;;;5045180;28;20379;-74
2023/03/21 02:04:34;;;;;;;81.00;38.83;;;7.10;99.90;;;;;;5051039;28;20044;-71
2023/03/21 02:07:06;;;;;;;79.53;37.55;;;7.10;99.90;;;;;;5040554;28;20373;-71
2023/03/21 02:09:34;;;;;;;78.25;40.53;;;7.10;99.90;;;;;;5049267;28;20041;-72
2023/03/21 02:12:00;;;;;;;81.65;38.45;;;7.10;99.90;;;;;;5050004;28;20044;-71
2023/03/21 02:14:31;;;;;;;83.75;40.50;;;7.10;99.90;;;;;;5051945;28;20033;-71
2023/03/21 02:17:07;;;;;;;82.60;39.85;;;7.10;99.90;;;;;;5047464;28;20033;-72
2023/03/21 02:19:44;;;;;;;82.00;38.85;;;7.10;99.90;;;;;;5042079;28;20064;-70
2023/03/21 02:22:36;;;;;;;81.50;40.15;;;7.10;99.90;;;;;;5046458;28;20115;-71
2023/03/21 02:25:21;;;;;;;79.10;37.20;;;7.10;99.90;;;;;;5047351;28;20036;-71
2023/03/21 02:27:55;;;;;;;79.05;37.53;;;7.10;99.90;;;;;;5039512;28;20025;-71
2023/03/21 02:30:35;;;;;;;80.32;38.75;;;7.10;99.90;;;;;;5039433;28;20055;-71
2023/03/21 02:33:40;;;;;;;79.33;37.53;;;7.10;99.90;;;;;;5044717;28;20119;-71
2023/03/21 02:36:35;;;;;;;83.28;38.72;;;7.10;99.90;;;;;;5046148;28;20029;-72
2023/03/21 02:39:13;;;;;;;82.03;39.88;;;7.10;99.90;;;;;;5044393;28;20057;-70
2023/03/21 02:42:10;;;;;;;94.72;42.30;;;7.10;99.90;;;;;;5049649;28;20127;-72
2023/03/21 02:44:36;;;;;;;88.53;40.20;;;7.10;99.90;;;;;;5040302;28;20090;-72
2023/03/21 02:47:08;;;;;;;93.65;41.50;;;7.10;99.90;;;;;;5048194;28;20037;-71
2023/03/21 02:50:01;;;;;;;95.90;40.70;;;7.10;99.90;;;;;;5046969;28;20068;-71
2023/03/21 02:52:34;;;;;;;89.15;40.45;;;7.10;99.90;;;;;;5030915;28;20041;-71
2023/03/21 02:55:03;;;;;;;87.63;41.13;;;7.10;99.90;;;;;;5051349;28;20033;-72
2023/03/21 02:57:30;;;;;;;91.63;41.95;;;7.10;99.90;;;;;;5047011;28;20032;-72
2023/03/21 02:59:57;;;;;;;97.60;42.50;;;7.10;99.90;;;;;;5042623;28;20048;-71
2023/03/21 03:02:27;;;;;;;100.35;43.53;;;7.10;99.90;;;;;;5040377;28;20493;-71
2023/03/21 03:04:54;;;;;;;97.80;43.80;;;7.20;99.90;;;;;;5048038;28;20040;-71
2023/03/21 03:07:39;;;;;;;105.50;44.95;;;7.10;99.90;;;;;;5035967;28;20168;-72
2023/03/21 03:10:36;;;;;;;94.32;43.40;;;7.20;99.90;;;;;;5033887;28;20060;-72
2023/03/21 03:13:34;;;;;;;97.20;43.70;;;7.10;99.90;;;;;;5048972;28;20045;-72
2023/03/21 03:16:37;;;;;;;102.07;44.25;;;7.20;99.90;;;;;;5048738;28;20024;-71
2023/03/21 03:19:06;;;;;;;111.45;43.75;;;7.10;99.90;;;;;;5040679;28;20044;-72
2023/03/21 03:21:41;;;;;;;109.22;45.65;;;7.10;99.90;;;;;;5043000;28;20040;-71
2023/03/21 03:24:16;;;;;;;102.63;44.30;;;7.20;99.90;;;;;;5047055;28;20029;-71
2023/03/21 03:26:53;;;;;;;112.88;45.75;;;7.20;99.90;;;;;;5043801;28;20069;-71
2023/03/21 03:29:20;;;;;;;116.75;46.10;;;7.20;99.90;;;;;;5045665;28;20025;-71
2023/03/21 03:32:09;;;;;;;109.88;45.80;;;7.20;99.90;;;;;;5045369;28;20052;-71
2023/03/21 03:34:39;;;;;;;108.97;44.95;;;7.20;99.90;;;;;;5046539;28;20025;-71
2023/03/21 03:37:08;;;;;;;109.18;46.60;;;7.20;99.90;;;;;;5046826;28;20037;-72
2023/03/21 03:39:42;;;;;;;116.40;47.25;;;7.20;99.90;;;;;;5036768;28;20029;-71
2023/03/21 03:42:17;;;;;;;107.30;47.40;;;7.20;99.90;;;;;;5047791;28;20056;-71
2023/03/21 03:44:43;;;;;;;114.70;48.03;;;7.20;99.90;;;;;;5048807;28;20052;-72
2023/03/21 03:47:20;;;;;;;119.20;47.95;;;7.20;99.90;;;;;;5045874;28;20029;-72
2023/03/21 03:50:14;;;;;;;113.40;48.47;;;7.20;99.90;;;;;;5044523;28;20086;-72
2023/03/21 03:52:51;;;;;;;114.78;47.53;;;7.20;99.90;;;;;;5020306;28;20041;-71
2023/03/21 03:55:20;;;;;;;117.45;47.83;;;7.20;99.90;;;;;;5046615;28;20115;-70
2023/03/21 03:57:46;;;;;;;123.93;48.42;;;7.30;99.90;;;;;;5037924;28;20382;-71
2023/03/21 04:00:14;;;;;;;117.25;48.13;;;7.20;99.90;;;;;;5046337;28;20029;-72
2023/03/21 04:02:40;;;;;;;116.18;46.90;;;7.30;99.90;;;;;;5048734;28;20112;-70
2023/03/21 04:05:06;;;;;;;128.80;49.25;;;7.30;99.90;;;;;;5045102;28;20284;-71
2023/03/21 04:07:31;;;;;;;136.77;50.25;;;7.30;99.90;;;;;;5043823;28;20048;-70
2023/03/21 04:09:57;;;;;;;125.22;50.55;;;7.30;99.90;;;;;;5045968;28;20045;-71
2023/03/21 04:12:23;;;;;;;115.93;49.17;;;7.30;99.90;;;;;;5046032;28;20059;-71
2023/03/21 04:14:49;;;;;;;111.05;47.53;;;7.30;99.90;;;;;;5048796;28;20166;-71
2023/03/21 04:17:15;;;;;;;116.05;48.50;;;7.30;99.90;;;;;;5045675;28;20092;-71
2023/03/21 04:19:40;;;;;;;102.60;45.47;;;7.30;99.90;;;;;;5041920;28;20100;-71
2023/03/21 04:22:06;;;;;;;115.20;45.25;;;7.30;99.90;;;;;;5041855;28;20033;-71
2023/03/21 04:24:32;;;;;;;108.50;46.67;;;7.30;99.90;;;;;;5041337;28;20120;-71
2023/03/21 04:26:58;;;;;;;109.60;45.03;;;7.30;99.90;;;;;;5048043;28;20025;-71
2023/03/21 04:29:24;;;;;;;111.43;47.53;;;7.30;99.90;;;;;;5048266;28;20025;-71
2023/03/21 04:31:50;;;;;;;114.05;46.33;;;7.30;99.90;;;;;;5040419;28;20566;-74
2023/03/21 04:34:15;;;;;;;120.95;46.65;;;7.30;99.90;;;;;;5045520;28;20480;-72
2023/03/21 04:36:45;;;;;;;119.90;48.20;;;7.30;99.90;;;;;;5041914;28;20044;-73
2023/03/21 04:39:12;;;;;;;114.30;47.10;;;7.30;99.90;;;;;;5047673;28;20029;-73
2023/03/21 04:41:40;;;;;;;114.70;47.40;;;7.30;99.90;;;;;;5045753;28;20049;-72
2023/03/21 04:44:06;;;;;;;111.53;48.17;;;7.40;99.90;;;;;;5048541;28;20034;-73
2023/03/21 04:46:33;;;;;;;122.82;48.15;;;7.40;99.90;;;;;;5044164;28;20502;-73
2023/03/21 04:48:59;;;;;;;112.32;48.35;;;7.40;99.90;;;;;;5045951;28;20072;-74
2023/03/21 04:51:24;;;;;;;127.55;49.88;;;7.40;99.90;;;;;;5046161;28;20037;-72
2023/03/21 04:53:51;;;;;;;120.28;48.55;;;7.40;99.90;;;;;;5047177;28;20036;-72
2023/03/21 04:56:17;;;;;;;117.05;46.42;;;7.40;99.90;;;;;;5048351;28;20029;-74
2023/03/21 04:58:43;;;;;;;122.88;48.53;;;7.40;99.90;;;;;;5050058;28;20033;-74
2023/03/21 05:01:08;;;;;;;128.13;48.38;;;7.40;99.90;;;;;;5052791;28;20483;-73
2023/03/21 05:03:39;;;;;;;121.25;50.00;;;7.40;99.90;;;;;;5049138;28;20033;-74
2023/03/21 05:06:07;;;;;;;120.37;47.63;;;7.40;99.90;;;;;;5046651;28;20033;-73
2023/03/21 05:08:33;;;;;;;121.63;49.17;;;7.40;99.90;;;;;;5046299;28;20066;-73
2023/03/21 05:10:59;;;;;;;136.02;48.13;;;7.50;99.90;;;;;;5047329;28;20033;-74
2023/03/21 05:13:24;;;;;;;121.30;49.05;;;7.40;99.90;;;;;;5045529;28;20470;-74
2023/03/21 05:15:50;;;;;;;124.38;48.35;;;7.40;99.90;;;;;;5048571;28;20111;-73
2023/03/21 05:18:23;;;;;;;131.63;47.78;;;7.50;99.90;;;;;;5047103;28;20056;-73
2023/03/21 05:20:52;;;;;;;136.50;50.10;;;7.50;99.90;;;;;;5029087;28;20108;-73
2023/03/21 05:23:18;;;;;;;122.03;47.72;;;7.50;99.90;;;;;;5033070;28;20120;-73
2023/03/21 05:25:44;;;;;;;118.38;48.55;;;7.50;99.90;;;;;;5043383;28;20529;-73
2023/03/21 05:28:09;;;;;;;134.18;48.70;;;7.50;99.90;;;;;;5052171;28;20469;-75
2023/03/21 05:30:35;;;;;;;126.10;49.38;;;7.50;99.90;;;;;;5048227;28;20378;-75
2023/03/21 05:33:00;;;;;;;129.07;49.00;;;7.50;99.90;;;;;;5046080;28;20128;-74
2023/03/21 05:35:26;;;;;;;123.57;48.10;;;7.50;99.90;;;;;;5030385;28;20041;-74
2023/03/21 05:37:52;;;;;;;122.88;49.75;;;7.50;99.90;;;;;;5039396;28;20037;-75
2023/03/21 05:40:18;;;;;;;134.10;47.30;;;7.50;99.90;;;;;;5044651;28;20361;-74
2023/03/21 05:42:45;;;;;;;125.18;49.20;;;7.50;99.90;;;;;;5048327;28;20041;-71
2023/03/21 05:45:11;;;;;;;138.90;51.22;;;7.50;99.90;;;;;;5046136;28;20032;-72
2023/03/21 05:47:37;;;;;;;133.05;50.50;;;7.50;99.90;;;;;;5050113;28;20036;-70
2023/03/21 05:50:02;;;;;;;128.60;50.53;;;7.60;99.90;;;;;;5018870;28;21167;-74
2023/03/21 05:52:28;;;;;;;119.85;50.58;;;7.60;99.90;;;;;;5047493;28;20067;-74
2023/03/21 05:54:54;;;;;;;131.18;50.55;;;7.60;99.90;;;;;;5048856;28;20147;-75
2023/03/21 05:57:19;;;;;;;133.38;50.13;;;7.60;99.90;;;;;;5050697;28;20033;-75
2023/03/21 05:59:45;;;;;;;129.02;49.63;;;7.60;99.90;;;;;;5049594;28;20107;-74
2023/03/21 06:02:11;;;;;;;117.55;50.08;;;7.60;99.90;;;;;;5042185;28;20041;-72
2023/03/21 06:04:36;;;;;;;129.30;49.88;;;7.60;99.90;;;;;;5044739;28;20070;-73
2023/03/21 06:07:02;;;;;;;126.43;50.08;;;7.60;99.90;;;;;;5037383;28;20037;-75
2023/03/21 06:09:28;;;;;;;135.05;49.83;;;7.60;99.90;;;;;;5041864;28;20271;-73
2023/03/21 06:11:55;;;;;;;120.03;48.45;;;7.60;99.90;;;;;;5049354;28;20052;-75
2023/03/21 06:14:22;;;;;;;122.97;50.65;;;7.60;99.90;;;;;;5044726;28;20041;-75
2023/03/21 06:16:49;;;;;;;119.20;47.90;;;7.60;99.90;;;;;;5049546;28;20377;-75
2023/03/21 06:19:15;;;;;;;127.82;48.25;;;7.70;99.90;;;;;;5048405;28;20063;-78
2023/03/21 06:21:41;;;;;;;123.95;48.22;;;7.70;99.90;;;;;;5048194;28;20024;-76
2023/03/21 06:24:07;;;;;;;127.47;48.65;;;7.70;99.90;;;;;;5046030;28;20086;-74
2023/03/21 06:26:32;;;;;;;126.88;49.92;;;7.80;99.90;;;;;;5032696;28;21437;-75
2023/03/21 06:28:58;;;;;;;128.50;50.42;;;7.80;99.90;;;;;;5048439;28;20036;-76
2023/03/21 06:31:25;;;;;;;132.18;50.10;;;7.90;99.90;;;;;;5045168;28;21179;-74
2023/03/21 06:33:51;;;;;;;136.05;48.80;;;8.00;99.90;;;;;;5044156;28;20018;-75
2023/03/21 06:36:17;;;;;;;130.13;48.42;;;8.00;99.90;;;;;;5046410;28;20044;-74
2023/03/21 06:38:42;;;;;;;137.05;49.35;;;7.90;99.90;;;;;;5043143;28;20075;-70
2023/03/21 06:41:09;;;;;;;121.38;47.45;;;7.90;99.90;;;;;;5047762;28;20128;-74
2023/03/21 06:43:34;;;;;;;131.10;48.38;;;7.90;99.90;;;;;;5051139;28;20593;-73
2023/03/21 06:46:00;;;;;;;118.65;48.05;;;7.90;99.90;;;;;;5036909;28;20033;-72
2023/03/21 06:48:26;;;;;;;117.07;47.97;;;7.90;99.90;;;;;;5045041;28;20134;-71
2023/03/21 06:50:53;;;;;;;109.10;45.58;;;7.90;99.90;;;;;;5043250;28;20457;-71
2023/03/21 06:53:23;;;;;;;106.32;47.55;;;7.90;99.90;;;;;;5039302;28;20040;-71
2023/03/21 06:55:50;;;;;;;112.55;46.80;;;7.90;99.90;;;;;;5049019;28;20536;-70
2023/03/21 06:58:16;;;;;;;113.55;46.25;;;7.90;99.90;;;;;;5048109;28;20036;-73
2023/03/21 07:00:42;;;;;;;103.32;45.63;;;7.90;99.90;;;;;;5046418;28;20411;-71
2023/03/21 07:03:07;;;;;;;110.95;45.78;;;7.90;99.90;;;;;;5045673;28;20076;-73
2023/03/21 07:05:35;;;;;;;110.10;46.53;;;7.90;99.90;;;;;;5039038;28;20036;-73
2023/03/21 07:08:00;;;;;;;127.97;48.03;;;7.90;99.90;;;;;;5045813;28;20049;-73
2023/03/21 07:10:26;;;;;;;107.32;46.03;;;8.00;99.90;;;;;;5051257;28;20044;-73
2023/03/21 07:12:51;;;;;;;102.68;45.13;;;8.00;99.90;;;;;;5045339;28;20026;-72
2023/03/21 07:15:17;;;;;;;92.85;43.83;;;7.90;99.90;;;;;;5045968;28;20040;-71
2023/03/21 07:17:42;;;;;;;100.60;43.28;;;7.90;99.90;;;;;;5049758;28;20107;-73
2023/03/21 07:20:09;;;;;;;105.68;43.78;;;8.00;99.90;;;;;;5049019;28;20168;-73
2023/03/21 07:22:35;;;;;;;85.40;42.50;;;8.00;99.90;;;;;;5044466;28;20373;-73
2023/03/21 07:25:01;;;;;;;98.22;41.67;;;8.00;99.90;;;;;;5031639;28;20041;-74
2023/03/21 07:27:26;;;;;;;93.88;43.00;;;8.00;99.90;;;;;;5044854;28;20033;-71
2023/03/21 07:29:52;;;;;;;90.07;41.55;;;8.10;99.90;;;;;;5047654;28;20158;-74
2023/03/21 07:32:17;;;;;;;78.85;39.90;;;8.10;99.90;;;;;;5046765;28;20033;-72
2023/03/21 07:34:42;;;;;;;75.78;38.65;;;8.10;99.90;;;;;;5050317;28;20080;-75
2023/03/21 07:37:08;;;;;;;81.38;39.05;;;8.10;99.90;;;;;;5044587;28;20041;-78
2023/03/21 07:39:35;;;;;;;75.88;38.88;;;8.10;99.90;;;;;;5044830;28;20098;-77
2023/03/21 07:42:00;;;;;;;81.00;39.42;;;8.10;99.90;;;;;;5049241;28;20057;-76
2023/03/21 07:44:26;;;;;;;75.05;37.25;;;8.10;99.90;;;;;;5048153;28;20773;-78
2023/03/21 07:46:51;;;;;;;77.00;38.22;;;8.10;99.90;;;;;;5043578;28;20036;-72
2023/03/21 07:49:17;;;;;;;80.70;39.78;;;8.10;99.90;;;;;;5043640;28;20083;-77
2023/03/21 07:51:42;;;;;;;94.05;40.92;;;8.10;99.90;;;;;;5042771;28;20037;-78
2023/03/21 07:54:08;;;;;;;85.95;41.30;;;8.20;99.90;;;;;;5044631;28;20024;-79
2023/03/21 07:56:33;;;;;;;86.57;41.03;;;8.20;99.90;;;;;;5042354;28;20087;-79
2023/03/21 07:58:59;;;;;;;84.25;40.10;;;8.20;99.90;;;;;;5039639;28;20049;-78
2023/03/21 08:01:25;;;;;;;93.65;41.63;;;8.30;99.90;;;;;;5042356;28;20460;-79
2023/03/21 08:03:52;;;;;;;100.60;42.30;;;8.20;99.90;;;;;;5048118;28;20057;-79
2023/03/21 08:06:19;;;;;;;98.30;43.42;;;8.30;99.90;;;;;;5032627;28;20037;-77
2023/03/21 08:08:45;;;;;;;96.93;41.95;;;8.30;99.90;;;;;;5033618;28;20039;-77
2023/03/21 08:11:10;;;;;;;112.25;43.75;;;8.30;99.90;;;;;;5053414;28;20104;-77
2023/03/21 08:13:36;;;;;;;105.82;45.72;;;8.30;99.90;;;;;;5052374;28;20033;-77
2023/03/21 08:16:01;;;;;;;102.68;41.97;;;8.30;99.90;;;;;;5051666;28;20445;-76
2023/03/21 08:18:27;;;;;;;108.35;42.75;;;8.30;99.90;;;;;;5042848;28;20040;-78
2023/03/21 08:20:53;;;;;;;96.80;43.08;;;8.40;99.90;;;;;;5053760;28;20072;-79
2023/03/21 08:23:20;;;;;;;100.47;43.83;;;8.40;99.90;;;;;;5051640;28;20454;-78
2023/03/21 08:25:49;;;;;;;98.93;43.65;;;8.50;99.90;;;;;;5052215;28;20028;-78
2023/03/21 08:28:15;;;;;;;97.65;44.30;;;8.50;99.90;;;;;;5054756;28;20037;-78
2023/03/21 08:30:40;;;;;;;104.57;44.78;;;8.60;99.90;;;;;;5056353;28;20462;-77
2023/03/21 08:33:06;;;;;;;107.38;44.25;;;8.60;99.90;;;;;;5053383;28;20036;-76
2023/03/21 08:35:32;;;;;;;91.50;43.60;;;8.70;99.90;;;;;;5039234;28;20131;-77
2023/03/21 08:37:57;;;;;;;101.38;42.47;;;8.80;99.90;;;;;;5057074;28;20112;-78
2023/03/21 08:40:23;;;;;;;87.28;41.95;;;8.70;99.90;;;;;;5055505;28;20033;-78
2023/03/21 08:42:49;;;;;;;90.70;42.10;;;8.80;99.90;;;;;;5059196;28;20041;-78
2023/03/21 08:45:16;;;;;;;78.25;39.55;;;8.80;99.90;;;;;;5048714;28;20027;-78
2023/03/21 08:47:41;;;;;;;76.57;40.35;;;8.90;99.90;;;;;;5057906;28;20124;-77
2023/03/21 08:50:09;;;;;;;71.72;38.85;;;8.90;99.90;;;;;;5053906;28;20143;-77
2023/03/21 08:52:36;;;;;;;73.93;38.13;;;8.90;99.90;;;;;;5055369;28;20478;-77
2023/03/21 08:55:03;;;;;;;77.38;39.80;;;8.90;99.90;;;;;;5056047;28;20040;-75
2023/03/21 08:57:29;;;;;;;76.15;38.08;;;9.00;99.90;;;;;;5056262;28;20067;-78
2023/03/21 08:59:55;;;;;;;65.13;35.08;;;9.00;99.90;;;;;;5051637;28;20072;-77
2023/03/21 09:02:21;;;;;;;63.67;34.97;;;9.00;99.90;;;;;;5053266;28;20479;-78
2023/03/21 09:04:46;;;;;;;64.47;35.53;;;8.90;99.90;;;;;;5052959;28;20033;-75
2023/03/21 09:07:13;;;;;;;68.53;35.88;;;8.90;99.90;;;;;;5057161;28;20039;-77
2023/03/21 09:09:40;;;;;;;66.03;35.35;;;9.00;99.90;;;;;;5059111;28;20029;-76
2023/03/21 09:12:05;;;;;;;61.00;35.30;;;8.90;99.90;;;;;;5057695;28;20040;-77
2023/03/21 09:14:32;;;;;;;60.78;35.42;;;8.90;99.90;;;;;;5056401;28;20037;-74
2023/03/21 09:16:57;;;;;;;57.38;33.88;;;9.00;99.90;;;;;;5056971;28;20032;-77
2023/03/21 09:19:23;;;;;;;69.40;34.95;;;9.00;99.90;;;;;;5058228;28;23215;-76
2023/03/21 09:21:49;;;;;;;61.78;34.63;;;9.10;99.90;;;;;;5056034;28;20047;-75
2023/03/21 09:24:16;;;;;;;63.67;35.55;;;9.10;99.90;;;;;;5052959;28;20036;-79
2023/03/21 09:26:42;;;;;;;59.53;34.65;;;9.10;99.90;;;;;;5061331;28;20040;-78
2023/03/21 09:29:08;;;;;;;60.13;33.78;;;9.00;99.90;;;;;;5057967;28;20398;-78
2023/03/21 09:31:34;;;;;;;60.92;33.63;;;9.10;99.90;;;;;;5056214;28;20032;-77
2023/03/21 09:33:59;;;;;;;62.17;33.70;;;9.10;99.90;;;;;;5054899;28;20032;-75
2023/03/21 09:36:26;;;;;;;63.20;34.25;;;9.10;99.90;;;;;;5055566;28;20025;-75
2023/03/21 09:38:53;;;;;;;61.60;35.38;;;9.10;99.90;;;;;;5058689;28;20120;-77
2023/03/21 09:41:55;;;;;;;63.97;34.05;;;9.10;99.90;;;;;;5055057;28;20049;-79
2023/03/21 09:45:05;;;;;;;54.85;33.28;;;9.10;99.90;;;;;;5052110;28;20030;-76
2023/03/21 09:47:44;;;;;;;57.83;32.88;;;9.10;99.90;;;;;;5051286;28;20017;-75
2023/03/21 09:50:30;;;;;;;64.20;35.00;;;9.10;99.90;;;;;;5047573;28;20116;-74
2023/03/21 09:53:22;;;;;;;65.40;35.20;;;9.10;99.90;;;;;;5051431;28;20086;-77
2023/03/21 09:55:48;;;;;;;65.20;34.67;;;9.10;99.90;;;;;;5043561;28;20375;-80
2023/03/21 09:58:27;;;;;;;58.05;34.03;;;9.10;99.90;;;;;;5051187;28;20094;-77
2023/03/21 10:01:06;;;;;;;68.70;35.13;;;9.10;99.90;;;;;;5051652;28;20025;-79
2023/03/21 10:03:36;;;;;;;61.22;33.72;;;9.10;99.90;;;;;;5049501;28;20039;-78
2023/03/21 10:06:14;;;;;;;57.28;34.65;;;9.00;99.90;;;;;;5047066;28;20392;-73
2023/03/21 10:08:41;;;;;;;66.15;36.05;;;9.10;99.90;;;;;;5052583;28;20043;-79
2023/03/21 10:11:24;;;;;;;65.90;34.50;;;9.10;99.90;;;;;;5055438;28;20029;-80
2023/03/21 10:13:55;;;;;;;62.40;35.15;;;9.10;99.90;;;;;;5050546;28;20099;-75
2023/03/21 10:16:31;;;;;;;65.70;35.45;;;9.10;99.90;;;;;;5047955;28;20038;-74
2023/03/21 10:19:01;;;;;;;73.13;35.63;;;9.20;99.90;;;;;;5049047;28;20035;-80
2023/03/21 10:21:28;;;;;;;62.40;34.38;;;9.20;99.90;;;;;;5049239;28;20100;-80
2023/03/21 10:23:56;;;;;;;61.65;33.55;;;9.20;99.90;;;;;;5047633;28;20122;-80
2023/03/21 10:26:26;;;;;;;66.38;33.78;;;9.30;99.90;;;;;;5045335;28;20292;-78
2023/03/21 10:28:54;;;;;;;66.38;34.30;;;9.30;99.90;;;;;;5049897;28;20052;-79
2023/03/21 10:31:24;;;;;;;61.00;34.58;;;9.30;99.90;;;;;;5051501;28;20056;-76
2023/03/21 10:33:52;;;;;;;65.55;33.95;;;9.30;99.90;;;;;;5049997;28;20021;-78
2023/03/21 10:36:26;;;;;;;65.57;33.67;;;9.40;99.90;;;;;;5047943;28;20120;-79
2023/03/21 10:38:55;;;;;;;58.85;32.75;;;9.40;99.80;;;;;;5053962;28;20090;-78
2023/03/21 10:41:21;;;;;;;61.15;33.08;;;9.40;99.70;;;;;;5052878;28;20053;-79
2023/03/21 10:44:02;;;;;;;57.78;32.75;;;9.50;99.80;;;;;;5053146;28;20086;-78
2023/03/21 10:46:27;;;;;;;;;;;9.50;99.60;;;;;;5052784;28;20020;-79
2023/03/21 10:48:53;;;;;;;55.60;29.10;;;9.40;99.50;;;;;;5054417;28;19920;-79
2023/03/21 10:51:21;;;;;;;54.60;30.02;;;9.40;99.40;;;;;;5035088;28;20028;-77
2023/03/21 10:53:53;;;;;;;46.92;29.30;;;9.50;99.50;;;;;;5051036;28;20029;-78
2023/03/21 10:56:25;;;;;;;49.45;27.60;;;9.60;99.50;;;;;;5054319;28;20065;-77
2023/03/21 10:58:51;;;;;;;46.53;26.67;;;9.50;99.30;;;;;;5055548;28;20537;-79
2023/03/21 11:01:31;;;;;;;40.47;24.95;;;9.60;99.30;;;;;;5054741;28;20461;-78
2023/03/21 11:04:00;;;;;;;38.00;24.70;;;9.60;99.20;;;;;;5051850;28;20024;-79
2023/03/21 11:06:27;;;;;;;47.70;25.30;;;9.70;99.00;;;;;;5046539;28;20036;-74
2023/03/21 11:08:56;;;;;;;42.63;22.77;;;9.70;99.00;;;;;;5053436;28;20040;-79
2023/03/21 11:11:27;;;;;;;38.45;24.70;;;9.80;99.10;;;;;;5054393;28;20033;-77
2023/03/21 11:13:58;;;;;;;42.20;25.33;;;9.90;99.20;;;;;;5052828;28;20029;-73
2023/03/21 11:16:30;;;;;;;38.28;23.75;;;9.90;99.10;;;;;;5052740;28;20035;-80
2023/03/21 11:19:01;;;;;;;33.97;21.60;;;10.00;99.10;;;;;;5049906;28;20116;-78
2023/03/21 11:21:27;;;;;;;34.25;19.88;;;10.00;98.90;;;;;;5051109;28;20024;-79
2023/03/21 11:23:54;;;;;;;32.58;20.98;;;9.90;98.50;;;;;;5055496;28;20041;-79
2023/03/21 11:26:27;;;;;;;33.90;19.92;;;9.80;98.70;;;;;;5036644;28;20028;-79
2023/03/21 11:28:53;;;;;;;32.53;19.40;;;9.80;98.80;;;;;;5048499;28;20047;-78
2023/03/21 11:31:20;;;;;;;27.45;17.48;;;9.80;98.90;;;;;;5050960;28;20043;-73
2023/03/21 11:33:55;;;;;;;28.00;18.10;;;9.80;98.60;;;;;;5053679;28;20025;-78
2023/03/21 11:36:21;;;;;;;27.75;18.80;;;9.70;98.50;;;;;;5047855;28;20041;-72
2023/03/21 11:39:22;;;;;;;30.90;19.17;;;9.60;98.70;;;;;;5046316;28;20105;-79
2023/03/21 11:41:50;;;;;;;32.50;19.13;;;9.70;99.10;;;;;;5019439;28;20052;-79
2023/03/21 11:44:28;;;;;;;33.38;19.58;;;9.60;99.20;;;;;;5034522;28;20020;-79
2023/03/21 11:46:54;;;;;;;31.38;18.30;;;9.80;99.40;;;;;;5043004;28;20040;-79
2023/03/21 11:49:20;;;;;;;30.83;18.35;;;9.80;99.30;;;;;;5054971;28;20037;-78
2023/03/21 11:51:58;;;;;;;26.00;18.52;;;9.80;99.30;;;;;;5053181;28;20055;-79
2023/03/21 11:54:40;;;;;;;28.60;18.42;;;9.80;99.40;;;;;;5051572;28;20037;-75
2023/03/21 11:57:26;;;;;;;23.75;17.10;;;9.70;99.40;;;;;;5056580;28;20580;-79
2023/03/21 11:59:59;;;;;;;25.52;17.15;;;9.70;99.50;;;;;;5054903;28;20041;-78
2023/03/21 12:02:36;;;;;;;27.17;17.40;;;9.70;99.60;;;;;;5051382;28;20036;-80
2023/03/21 12:05:20;;;;;;;24.95;18.00;;;9.70;99.60;;;;;;5049045;28;20082;-78
2023/03/21 12:07:59;;;;;;;29.48;17.65;;;9.60;99.60;;;;;;5044650;28;20039;-76
2023/03/21 12:10:35;;;;;;;27.27;19.00;;;9.60;99.80;;;;;;5051195;28;20029;-80
2023/03/21 12:13:40;;;;;;;26.40;17.35;;;9.60;99.70;;;;;;5044946;28;20037;-74
2023/03/21 12:16:44;;;;;;;29.27;19.90;;;9.60;99.70;;;;;;5052444;28;20049;-78
2023/03/21 12:19:15;;;;;;;28.30;17.88;;;9.60;99.80;;;;;;5049833;28;20028;-80
2023/03/21 12:22:10;;;;;;;32.78;19.58;;;9.60;99.70;;;;;;5047113;28;20041;-74
2023/03/21 12:24:49;;;;;;;29.45;18.85;;;9.60;99.80;;;;;;5019114;28;20057;-79
2023/03/21 12:27:36;;;;;;;30.52;20.60;;;9.70;99.80;;;;;;5046073;28;20021;-76
2023/03/21 12:30:22;;;;;;;34.00;22.95;;;9.60;99.60;;;;;;5045178;28;20103;-80
2023/03/21 12:33:03;;;;;;;30.55;20.17;;;9.70;99.70;;;;;;5046719;28;20035;-79
2023/03/21 12:35:33;;;;;;;33.97;22.05;;;9.80;99.70;;;;;;5036573;28;20067;-77
2023/03/21 12:38:23;;;;;;;35.38;20.90;;;9.80;99.70;;;;;;5046723;28;20033;-78
2023/03/21 12:41:13;;;;;;;28.10;19.25;;;9.80;99.70;;;;;;5046682;28;20087;-78
2023/03/21 12:43:45;;;;;;;29.85;19.48;;;9.70;99.60;;;;;;5042711;28;20458;-76
2023/03/21 12:46:41;;;;;;;27.23;19.30;;;9.80;99.80;;;;;;5051589;28;20033;-79
2023/03/21 12:49:27;;;;;;;29.08;19.17;;;9.80;99.70;;;;;;5048739;28;20044;-80